createdAt,value
2019-05-01T00:00:38.372Z,101512.04
2019-05-01T00:03:33.666Z,101504.45
2019-05-01T00:06:03.740Z,101499.16
2019-05-01T00:08:33.427Z,101494.17
2019-05-01T00:11:03.107Z,101490.05
2019-05-01T00:13:33.882Z,101492.66
2019-05-01T00:16:03.992Z,101497.64
2019-05-01T00:18:34.803Z,101498.30
2019-05-01T00:21:05.238Z,101491.73
2019-05-01T00:23:34.914Z,101494.86
2019-05-01T00:26:04.806Z,101489.05
2019-05-01T00:28:34.487Z,101486.28
2019-05-01T00:31:05.047Z,101484.44
2019-05-01T00:33:35.002Z,101484.52
2019-05-01T00:36:05.166Z,101478.77
2019-05-01T00:38:34.859Z,101478.38
2019-05-01T00:41:05.284Z,101478.38
2019-05-01T00:43:34.962Z,101477.78
2019-05-01T00:46:05.159Z,101474.41
2019-05-01T00:48:34.849Z,101475.17
2019-05-01T00:51:05.125Z,101475.70
2019-05-01T00:53:35.782Z,101478.77
2019-05-01T00:56:33.602Z,101473.23
2019-05-01T00:59:21.487Z,101466.66
2019-05-01T01:02:15.558Z,101466.04
2019-05-01T01:04:45.321Z,101472.39
2019-05-01T01:07:15.008Z,101463.98
2019-05-01T01:09:44.696Z,101463.98
2019-05-01T01:12:14.385Z,101461.73
2019-05-01T01:14:44.453Z,101458.91
2019-05-01T01:17:15.373Z,101460.89
2019-05-01T01:19:45.051Z,101457.91
2019-05-01T01:22:13.354Z,101454.14
2019-05-01T01:24:41.663Z,101457.45
2019-05-01T01:27:09.962Z,101446.84
2019-05-01T01:29:38.274Z,101453.68
2019-05-01T01:32:08.404Z,101451.47
2019-05-01T01:34:38.230Z,101451.83
2019-05-01T01:37:07.985Z,101447.71
2019-05-01T01:39:38.131Z,101441.84
2019-05-01T01:42:09.043Z,101437.63
2019-05-01T01:44:47.401Z,101438.48
2019-05-01T01:47:17.332Z,101433.28
2019-05-01T01:49:47.091Z,101432.27
2019-05-01T01:52:16.909Z,101430.20
2019-05-01T01:54:46.830Z,101429.37
2019-05-01T01:57:16.990Z,101421.84
2019-05-01T01:59:46.814Z,101418.37
2019-05-01T02:02:16.054Z,101412.84
2019-05-01T02:04:45.022Z,101412.84
2019-05-01T02:07:13.893Z,101411.14
2019-05-01T02:09:42.838Z,101406.66
2019-05-01T02:12:13.407Z,101403.43
2019-05-01T02:14:43.151Z,101406.64
2019-05-01T02:17:12.821Z,101411.19
2019-05-01T02:19:42.492Z,101408.34
2019-05-01T02:22:12.168Z,101406.94
2019-05-01T02:24:41.918Z,101403.80
2019-05-01T02:27:16.600Z,101409.55
2019-05-01T02:29:50.490Z,101404.09
2019-05-01T02:32:23.425Z,101409.17
2019-05-01T02:34:54.698Z,101402.20
2019-05-01T02:37:26.999Z,101400.90
2019-05-01T02:39:58.946Z,101406.52
2019-05-01T02:42:31.021Z,101400.21
2019-05-01T02:45:03.098Z,101398.83
2019-05-01T02:47:35.993Z,101389.47
2019-05-01T02:50:09.495Z,101386.33
2019-05-01T02:52:41.679Z,101387.40
2019-05-01T02:55:21.948Z,101386.87
2019-05-01T02:57:52.418Z,101379.69
2019-05-01T03:00:22.079Z,101385.80
2019-05-01T03:02:52.108Z,101385.48
2019-05-01T03:05:22.146Z,101381.12
2019-05-01T03:07:52.373Z,101381.12
2019-05-01T03:10:22.187Z,101378.36
2019-05-01T03:12:52.878Z,101374.62
2019-05-01T03:15:25.257Z,101377.23
2019-05-01T03:18:14.481Z,101377.34
2019-05-01T03:21:06.594Z,101376.03
2019-05-01T03:23:40.485Z,101385.41
2019-05-01T03:26:10.873Z,101374.54
2019-05-01T03:28:40.732Z,101374.08
2019-05-01T03:31:10.695Z,101373.30
2019-05-01T03:33:41.327Z,101371.23
2019-05-01T03:36:11.764Z,101374.23
2019-05-01T03:38:42.118Z,101368.41
2019-05-01T03:41:12.046Z,101370.40
2019-05-01T03:43:42.068Z,101372.47
2019-05-01T03:46:11.908Z,101377.45
2019-05-01T03:48:42.530Z,101370.09
2019-05-01T03:51:13.794Z,101368.87
2019-05-01T03:53:43.726Z,101365.11
2019-05-01T03:56:13.871Z,101370.48
2019-05-01T03:58:43.793Z,101371.06
2019-05-01T04:01:35.768Z,101368.75
2019-05-01T04:04:09.306Z,101367.55
2019-05-01T04:06:39.164Z,101370.24
2019-05-01T04:09:08.997Z,101369.63
2019-05-01T04:11:38.926Z,101362.05
2019-05-01T04:14:08.766Z,101365.42
2019-05-01T04:16:39.965Z,101370.41
2019-05-01T04:19:09.823Z,101363.72
2019-05-01T04:21:45.455Z,101362.41
2019-05-01T04:24:15.533Z,101364.55
2019-05-01T04:26:45.798Z,101362.48
2019-05-01T04:29:40.516Z,101362.48
2019-05-01T04:32:29.619Z,101362.48
2019-05-01T04:35:22.319Z,101360.96
2019-05-01T04:37:53.257Z,101358.80
2019-05-01T04:40:23.488Z,101360.59
2019-05-01T04:42:53.636Z,101365.13
2019-05-01T04:45:24.155Z,101367.17
2019-05-01T04:47:54.795Z,101367.17
2019-05-01T04:50:24.542Z,101369.63
2019-05-01T04:52:54.890Z,101367.62
2019-05-01T04:55:23.702Z,101368.80
2019-05-01T04:57:52.172Z,101367.17
2019-05-01T05:00:20.612Z,101361.50
2019-05-01T05:03:04.954Z,101366.86
2019-05-01T05:05:33.518Z,101369.33
2019-05-01T05:08:03.781Z,101369.84
2019-05-01T05:10:33.922Z,101377.53
2019-05-01T05:13:13.270Z,101378.38
2019-05-01T05:16:02.220Z,101375.61
2019-05-01T05:18:32.244Z,101378.90
2019-05-01T05:21:02.390Z,101378.13
2019-05-01T05:23:32.695Z,101371.70
2019-05-01T05:26:03.384Z,101380.20
2019-05-01T05:28:34.333Z,101379.98
2019-05-01T05:31:06.816Z,101383.59
2019-05-01T05:33:38.340Z,101373.56
2019-05-01T05:36:09.325Z,101375.22
2019-05-01T05:38:55.444Z,101376.52
2019-05-01T05:41:26.471Z,101375.70
2019-05-01T05:43:57.093Z,101378.91
2019-05-01T05:46:26.863Z,101379.53
2019-05-01T05:48:56.620Z,101380.75
2019-05-01T05:51:43.485Z,101381.28
2019-05-01T05:54:33.177Z,101377.52
2019-05-01T05:57:12.838Z,101381.45
2019-05-01T05:59:47.953Z,101377.62
2019-05-01T06:02:28.761Z,101382.52
2019-05-01T06:05:12.846Z,101383.43
2019-05-01T06:08:05.252Z,101384.38
2019-05-01T06:10:58.552Z,101382.98
2019-05-01T06:13:47.308Z,101376.46
2019-05-01T06:16:24.934Z,101377.14
2019-05-01T06:19:00.826Z,101379.75
2019-05-01T06:21:36.106Z,101375.39
2019-05-01T06:24:21.046Z,101375.84
2019-05-01T06:26:50.965Z,101378.14
2019-05-01T06:29:20.806Z,101370.85
2019-05-01T06:31:54.079Z,101368.61
2019-05-01T06:34:23.964Z,101370.77
2019-05-01T06:36:53.760Z,101369.59
2019-05-01T06:39:23.743Z,101375.52
2019-05-01T06:41:53.680Z,101374.98
2019-05-01T06:44:33.387Z,101373.77
2019-05-01T06:47:25.889Z,101375.67
2019-05-01T06:50:32.169Z,101369.55
2019-05-01T06:53:04.752Z,101375.98
2019-05-01T06:55:35.305Z,101369.00
2019-05-01T06:58:05.837Z,101366.08
2019-05-01T07:00:39.177Z,101365.49
2019-05-01T07:03:10.511Z,101370.60
2019-05-01T07:05:44.560Z,101363.70
2019-05-01T07:08:23.998Z,101369.89
2019-05-01T07:10:45.913Z,101367.10
2019-05-01T07:13:15.764Z,101365.44
2019-05-01T07:15:45.445Z,101366.08
2019-05-01T07:18:18.846Z,101363.31
2019-05-01T07:20:53.151Z,101365.41
2019-05-01T07:23:23.677Z,101365.80
2019-05-01T07:25:53.911Z,101370.93
2019-05-01T07:28:28.873Z,101368.80
2019-05-01T07:31:05.049Z,101378.61
2019-05-01T07:33:34.067Z,101375.70
2019-05-01T07:36:07.102Z,101370.33
2019-05-01T07:38:38.509Z,101367.53
2019-05-01T07:41:07.099Z,101365.87
2019-05-01T07:43:59.591Z,101369.52
2019-05-01T07:46:48.832Z,101372.33
2019-05-01T07:49:17.610Z,101367.96
2019-05-01T07:51:52.444Z,101370.88
2019-05-01T07:54:23.479Z,101369.48
2019-05-01T07:56:52.747Z,101375.70
2019-05-01T07:59:22.816Z,101376.37
2019-05-01T08:01:59.813Z,101375.86
2019-05-01T08:04:35.852Z,101372.09
2019-05-01T08:06:58.715Z,101368.94
2019-05-01T08:09:27.929Z,101372.25
2019-05-01T08:11:56.221Z,101371.45
2019-05-01T08:14:24.657Z,101372.45
2019-05-01T08:16:53.073Z,101372.20
2019-05-01T08:19:26.670Z,101371.95
2019-05-01T08:22:09.967Z,101369.16
2019-05-01T08:24:38.261Z,101374.77
2019-05-01T08:27:08.886Z,101369.56
2019-05-01T08:30:05.406Z,101369.42
2019-05-01T08:32:43.530Z,101366.76
2019-05-01T08:35:15.296Z,101372.04
2019-05-01T08:37:45.115Z,101366.25
2019-05-01T08:40:20.396Z,101371.59
2019-05-01T08:42:47.307Z,101373.84
2019-05-01T08:45:49.223Z,101369.41
2019-05-01T08:48:37.918Z,101370.55
2019-05-01T08:51:07.760Z,101363.30
2019-05-01T08:53:37.610Z,101363.79
2019-05-01T08:56:09.782Z,101364.81
2019-05-01T08:58:39.006Z,101371.34
2019-05-01T09:01:10.744Z,101370.06
2019-05-01T09:03:40.393Z,101369.02
2019-05-01T09:06:10.083Z,101366.66
2019-05-01T09:08:39.785Z,101357.22
2019-05-01T09:11:09.546Z,101361.97
2019-05-01T09:13:39.237Z,101358.03
2019-05-01T09:16:09.161Z,101350.81
2019-05-01T09:18:38.836Z,101344.98
2019-05-01T09:21:08.895Z,101344.19
2019-05-01T09:23:38.904Z,101342.81
2019-05-01T09:26:16.384Z,101339.81
2019-05-01T09:28:51.710Z,101334.47
2019-05-01T09:31:23.491Z,101331.55
2019-05-01T09:33:53.260Z,101338.77
2019-05-01T09:36:23.022Z,101337.59
2019-05-01T09:38:52.881Z,101339.88
2019-05-01T09:41:22.650Z,101337.27
2019-05-01T09:43:52.575Z,101336.06
2019-05-01T09:46:22.528Z,101339.30
2019-05-01T09:48:52.563Z,101339.53
2019-05-01T09:51:42.499Z,101343.33
2019-05-01T09:54:21.412Z,101341.80
2019-05-01T09:56:51.358Z,101326.59
2019-05-01T09:59:21.103Z,101326.02
2019-05-01T10:01:50.888Z,101329.55
2019-05-01T10:04:20.569Z,101323.11
2019-05-01T10:06:52.197Z,101317.12
2019-05-01T10:09:21.657Z,101321.36
2019-05-01T10:11:51.506Z,101318.98
2019-05-01T10:14:21.274Z,101320.96
2019-05-01T10:16:50.950Z,101317.86
2019-05-01T10:19:20.635Z,101313.11
2019-05-01T10:21:50.583Z,101309.44
2019-05-01T10:24:20.280Z,101302.24
2019-05-01T10:26:55.193Z,101308.73
2019-05-01T10:29:42.310Z,101310.47
2019-05-01T10:32:37.018Z,101313.30
2019-05-01T10:35:26.857Z,101311.91
2019-05-01T10:37:56.625Z,101308.86
2019-05-01T10:40:27.046Z,101303.31
2019-05-01T10:42:58.379Z,101294.96
2019-05-01T10:45:28.052Z,101286.00
2019-05-01T10:47:57.747Z,101280.63
2019-05-01T10:50:27.423Z,101287.70
2019-05-01T10:52:57.111Z,101283.09
2019-05-01T10:55:26.891Z,101280.48
2019-05-01T10:57:56.562Z,101283.77
2019-05-01T11:00:26.418Z,101286.34
2019-05-01T11:02:56.370Z,101284.84
2019-05-01T11:05:27.256Z,101272.72
2019-05-01T11:07:56.934Z,101280.45
2019-05-01T11:10:26.649Z,101279.31
2019-05-01T11:12:56.406Z,101274.22
2019-05-01T11:15:26.177Z,101276.95
2019-05-01T11:17:56.087Z,101269.28
2019-05-01T11:20:26.494Z,101262.97
2019-05-01T11:22:56.247Z,101264.41
2019-05-01T11:25:26.593Z,101258.79
2019-05-01T11:27:56.535Z,101247.48
2019-05-01T11:30:26.225Z,101256.80
2019-05-01T11:33:11.122Z,101259.93
2019-05-01T11:36:09.356Z,101256.06
2019-05-01T11:38:47.169Z,101254.23
2019-05-01T11:41:39.007Z,101256.87
2019-05-01T11:44:08.694Z,101257.03
2019-05-01T11:46:38.368Z,101245.31
2019-05-01T11:49:08.148Z,101253.77
2019-05-01T11:51:37.815Z,101246.00
2019-05-01T11:54:07.568Z,101249.91
2019-05-01T11:56:37.591Z,101247.25
2019-05-01T11:59:07.280Z,101248.16
2019-05-01T12:01:37.550Z,101249.89
2019-05-01T12:04:07.235Z,101250.22
2019-05-01T12:06:36.980Z,101243.67
2019-05-01T12:09:07.755Z,101242.36
2019-05-01T12:11:40.786Z,101240.87
2019-05-01T12:14:10.570Z,101237.48
2019-05-01T12:16:57.988Z,101227.89
2019-05-01T12:19:27.787Z,101231.77
2019-05-01T12:21:57.465Z,101234.62
2019-05-01T12:24:30.405Z,101233.20
2019-05-01T12:27:00.078Z,101228.95
2019-05-01T12:29:29.780Z,101220.28
2019-05-01T12:31:59.535Z,101216.73
2019-05-01T12:34:29.224Z,101214.80
2019-05-01T12:37:21.208Z,101215.16
2019-05-01T12:39:49.627Z,101215.16
2019-05-01T12:42:20.681Z,101208.86
2019-05-01T12:44:48.475Z,101208.03
2019-05-01T12:47:15.902Z,101199.33
2019-05-01T12:49:43.334Z,101188.59
2019-05-01T12:52:11.006Z,101195.27
2019-05-01T12:54:38.404Z,101195.83
2019-05-01T12:57:05.846Z,101193.33
2019-05-01T12:59:33.352Z,101193.55
2019-05-01T13:02:00.783Z,101183.36
2019-05-01T13:04:28.381Z,101188.12
2019-05-01T13:06:55.820Z,101181.77
2019-05-01T13:09:23.371Z,101180.73
2019-05-01T13:11:54.422Z,101179.75
2019-05-01T13:14:24.106Z,101175.63
2019-05-01T13:16:54.725Z,101169.61
2019-05-01T13:19:24.423Z,101165.31
2019-05-01T13:21:54.180Z,101167.81
2019-05-01T13:24:23.943Z,101161.74
2019-05-01T13:27:13.029Z,101162.73
2019-05-01T13:29:48.579Z,101152.34
2019-05-01T13:32:40.110Z,101157.84
2019-05-01T13:35:10.125Z,101151.10
2019-05-01T13:37:40.125Z,101143.94
2019-05-01T13:40:10.967Z,101131.84
2019-05-01T13:42:40.808Z,101128.69
2019-05-01T13:45:12.158Z,101133.02
2019-05-01T13:47:41.910Z,101130.77
2019-05-01T13:50:13.122Z,101131.73
2019-05-01T13:52:42.806Z,101133.50
2019-05-01T13:55:12.850Z,101129.45
2019-05-01T13:57:42.618Z,101120.52
2019-05-01T14:00:13.049Z,101116.34
2019-05-01T14:02:44.432Z,101115.88
2019-05-01T14:05:14.250Z,101117.48
2019-05-01T14:07:43.949Z,101114.39
2019-05-01T14:10:13.707Z,101107.14
2019-05-01T14:12:43.406Z,101102.89
2019-05-01T14:15:13.364Z,101102.98
2019-05-01T14:17:43.137Z,101102.27
2019-05-01T14:20:34.940Z,101099.72
2019-05-01T14:23:10.699Z,101093.25
2019-05-01T14:25:58.115Z,101089.30
2019-05-01T14:28:28.041Z,101085.63
2019-05-01T14:30:57.752Z,101091.47
2019-05-01T14:33:27.423Z,101086.48
2019-05-01T14:35:57.351Z,101080.13
2019-05-01T14:38:28.059Z,101077.97
2019-05-01T14:40:57.799Z,101084.54
2019-05-01T14:43:27.810Z,101073.41
2019-05-01T14:45:57.552Z,101071.75
2019-05-01T14:48:27.225Z,101061.67
2019-05-01T14:50:56.938Z,101066.47
2019-05-01T14:53:26.616Z,101057.37
2019-05-01T14:55:56.371Z,101052.97
2019-05-01T14:58:26.054Z,101053.78
2019-05-01T15:00:55.813Z,101063.47
2019-05-01T15:03:25.495Z,101056.80
2019-05-01T15:05:55.714Z,101051.59
2019-05-01T15:08:25.466Z,101056.37
2019-05-01T15:10:55.226Z,101052.33
2019-05-01T15:13:34.246Z,101053.52
2019-05-01T15:16:09.818Z,101045.46
2019-05-01T15:18:57.458Z,101046.34
2019-05-01T15:21:27.214Z,101046.12
2019-05-01T15:23:56.975Z,101042.70
2019-05-01T15:26:26.654Z,101042.15
2019-05-01T15:28:56.406Z,101040.61
2019-05-01T15:31:26.258Z,101034.01
2019-05-01T15:33:55.943Z,101026.93
2019-05-01T15:36:25.866Z,101025.83
2019-05-01T15:38:55.982Z,101020.11
2019-05-01T15:41:47.718Z,101024.83
2019-05-01T15:44:19.357Z,101017.14
2019-05-01T15:46:48.042Z,101017.52
2019-05-01T15:49:18.099Z,101019.67
2019-05-01T15:51:48.301Z,101018.20
2019-05-01T15:54:18.182Z,101016.81
2019-05-01T15:56:48.112Z,101011.86
2019-05-01T15:59:18.300Z,101006.03
2019-05-01T16:01:48.262Z,101010.61
2019-05-01T16:04:18.147Z,101002.98
2019-05-01T16:06:48.214Z,101003.86
2019-05-01T16:09:18.359Z,100997.13
2019-05-01T16:12:13.106Z,100995.32
2019-05-01T16:14:45.798Z,100992.83
2019-05-01T16:17:15.768Z,100995.95
2019-05-01T16:19:45.592Z,100989.67
2019-05-01T16:22:15.762Z,100994.53
2019-05-01T16:24:45.722Z,100989.02
2019-05-01T16:27:16.576Z,100983.04
2019-05-01T16:29:46.481Z,100981.56
2019-05-01T16:32:16.548Z,100981.39
2019-05-01T16:34:46.636Z,100975.72
2019-05-01T16:37:16.519Z,100969.78
2019-05-01T16:40:05.479Z,100971.10
2019-05-01T16:42:40.884Z,100971.10
2019-05-01T16:45:11.817Z,100969.86
2019-05-01T16:47:42.143Z,100967.36
2019-05-01T16:50:12.408Z,100968.51
2019-05-01T16:52:43.567Z,100968.75
2019-05-01T16:55:14.657Z,100966.96
2019-05-01T16:57:45.352Z,100962.87
2019-05-01T17:00:19.561Z,100961.97
2019-05-01T17:02:58.703Z,100962.05
2019-05-01T17:05:50.455Z,100956.94
2019-05-01T17:08:46.138Z,100960.45
2019-05-01T17:11:16.460Z,100953.64
2019-05-01T17:13:47.270Z,100958.16
2019-05-01T17:16:17.182Z,100954.05
2019-05-01T17:21:16.129Z,100950.55
2019-05-01T17:23:45.922Z,100953.28
2019-05-01T17:26:16.177Z,100944.17
2019-05-01T17:28:48.189Z,100945.39
2019-05-01T17:31:18.441Z,100951.52
2019-05-01T17:33:55.459Z,100948.55
2019-05-01T17:36:26.283Z,100948.30
2019-05-01T17:39:01.780Z,100948.80
2019-05-01T17:41:31.062Z,100942.83
2019-05-01T17:44:02.230Z,100941.06
2019-05-01T17:46:32.171Z,100945.59
2019-05-01T17:49:04.213Z,100945.73
2019-05-01T17:51:33.498Z,100943.48
2019-05-01T17:54:03.422Z,100943.02
2019-05-01T17:56:34.165Z,100949.24
2019-05-01T17:59:04.134Z,100945.89
2019-05-01T18:02:05.331Z,100948.66
2019-05-01T18:04:50.730Z,100943.03
2019-05-01T18:07:22.041Z,100941.13
2019-05-01T18:09:55.700Z,100946.50
2019-05-01T18:12:28.444Z,100942.70
2019-05-01T18:14:55.799Z,100939.54
2019-05-01T18:17:26.476Z,100943.36
2019-05-01T18:19:56.834Z,100939.41
2019-05-01T18:22:46.709Z,100940.86
2019-05-01T18:25:28.243Z,100939.30
2019-05-01T18:28:15.420Z,100940.31
2019-05-01T18:30:45.337Z,100948.75
2019-05-01T18:33:15.879Z,100947.98
2019-05-01T18:35:49.167Z,100943.58
2019-05-01T18:38:24.413Z,100950.80
2019-05-01T18:41:02.134Z,100943.81
2019-05-01T18:43:33.891Z,100952.24
2019-05-01T18:46:08.318Z,100945.81
2019-05-01T18:48:38.450Z,100950.07
2019-05-01T18:51:08.705Z,100950.05
2019-05-01T18:53:38.805Z,100954.16
2019-05-01T18:56:08.832Z,100950.08
2019-05-01T18:58:39.043Z,100954.44
2019-05-01T19:01:10.804Z,100947.70
2019-05-01T19:03:44.080Z,100948.38
2019-05-01T19:06:15.533Z,100951.77
2019-05-01T19:08:45.744Z,100946.50
2019-05-01T19:11:15.976Z,100947.57
2019-05-01T19:13:45.420Z,100943.76
2019-05-01T19:16:15.034Z,100948.12
2019-05-01T19:18:49.354Z,100948.54
2019-05-01T19:21:23.623Z,100957.47
2019-05-01T19:23:52.572Z,100950.38
2019-05-01T19:26:23.087Z,100954.73
2019-05-01T19:28:54.280Z,100950.48
2019-05-01T19:31:24.832Z,100952.02
2019-05-01T19:33:54.683Z,100953.52
2019-05-01T19:36:24.650Z,100958.97
2019-05-01T19:38:55.387Z,100956.49
2019-05-01T19:41:26.257Z,100961.39
2019-05-01T19:43:56.091Z,100959.27
2019-05-01T19:46:27.003Z,100956.32
2019-05-01T19:48:57.148Z,100954.22
2019-05-01T19:51:27.144Z,100959.45
2019-05-01T19:53:57.150Z,100959.92
2019-05-01T19:56:27.053Z,100956.41
2019-05-01T19:58:56.870Z,100954.19
2019-05-01T20:01:26.936Z,100957.20
2019-05-01T20:03:56.858Z,100958.83
2019-05-01T20:06:26.698Z,100959.56
2019-05-01T20:08:56.946Z,100957.98
2019-05-01T20:11:27.214Z,100957.62
2019-05-01T20:13:57.539Z,100960.70
2019-05-01T20:16:27.811Z,100962.97
2019-05-01T20:18:57.718Z,100963.53
2019-05-01T20:21:28.359Z,100961.02
2019-05-01T20:23:58.171Z,100957.49
2019-05-01T20:26:32.214Z,100955.16
2019-05-01T20:29:01.066Z,100953.96
2019-05-01T20:31:34.991Z,100957.24
2019-05-01T20:34:05.355Z,100953.14
2019-05-01T20:36:35.421Z,100953.53
2019-05-01T20:39:07.157Z,100951.83
2019-05-01T20:41:38.322Z,100951.47
2019-05-01T20:44:08.233Z,100949.70
2019-05-01T20:46:38.906Z,100947.86
2019-05-01T20:49:08.997Z,100948.69
2019-05-01T20:51:39.142Z,100951.02
2019-05-01T20:54:09.522Z,100947.49
2019-05-01T20:56:59.003Z,100944.23
2019-05-01T20:59:28.919Z,100942.53
2019-05-01T21:01:59.669Z,100935.92
2019-05-01T21:04:49.608Z,100945.23
2019-05-01T21:07:23.539Z,100938.97
2019-05-01T21:09:57.878Z,100939.81
2019-05-01T21:12:24.988Z,100939.17
2019-05-01T21:14:54.887Z,100939.73
2019-05-01T21:17:24.734Z,100940.19
2019-05-01T21:19:54.662Z,100939.08
2019-05-01T21:22:24.870Z,100940.20
2019-05-01T21:24:54.802Z,100935.54
2019-05-01T21:27:25.285Z,100934.50
2019-05-01T21:29:56.085Z,100929.74
2019-05-01T21:32:27.470Z,100932.45
2019-05-01T21:34:58.556Z,100927.04
2019-05-01T21:37:28.342Z,100926.66
2019-05-01T21:39:58.260Z,100922.65
2019-05-01T21:42:28.184Z,100925.88
2019-05-01T21:44:58.704Z,100924.13
2019-05-01T21:47:28.634Z,100922.07
2019-05-01T21:49:59.448Z,100918.71
2019-05-01T21:52:29.994Z,100919.82
2019-05-01T21:54:59.902Z,100912.00
2019-05-01T21:57:32.567Z,100912.55
2019-05-01T22:00:01.257Z,100908.16
2019-05-01T22:02:33.459Z,100909.55
2019-05-01T22:05:04.114Z,100906.00
2019-05-01T22:07:38.700Z,100905.64
2019-05-01T22:10:09.237Z,100907.41
2019-05-01T22:12:38.998Z,100899.68
2019-05-01T22:15:34.790Z,100898.73
2019-05-01T22:18:30.213Z,100896.59
2019-05-01T22:21:07.930Z,100902.45
2019-05-01T22:23:56.798Z,100891.47
2019-05-01T22:26:28.643Z,100886.16
2019-05-01T22:29:00.367Z,100885.86
2019-05-01T22:31:57.592Z,100889.48
2019-05-01T22:34:34.971Z,100886.31
2019-05-01T22:37:05.400Z,100884.56
2019-05-01T22:39:37.055Z,100881.04
2019-05-01T22:42:06.763Z,100879.05
2019-05-01T22:44:36.817Z,100876.94
2019-05-01T22:47:10.254Z,100877.84
2019-05-01T22:49:38.343Z,100877.09
2019-05-01T22:52:17.270Z,100882.95
2019-05-01T22:54:48.853Z,100880.25
2019-05-01T22:57:20.790Z,100879.66
2019-05-01T22:59:49.225Z,100876.55
2019-05-01T23:02:28.367Z,100868.55
2019-05-01T23:04:56.951Z,100867.79
2019-05-01T23:07:27.724Z,100872.53
2019-05-01T23:09:59.382Z,100867.13
2019-05-01T23:12:30.236Z,100863.56
2019-05-01T23:15:00.059Z,100864.27
2019-05-01T23:17:39.549Z,100862.41
2019-05-01T23:20:10.775Z,100856.70
2019-05-01T23:22:40.449Z,100858.94
2019-05-01T23:25:10.944Z,100857.19
2019-05-01T23:27:40.693Z,100855.03
2019-05-01T23:30:12.136Z,100853.44
2019-05-01T23:32:42.045Z,100851.48
2019-05-01T23:35:11.953Z,100847.70
2019-05-01T23:37:41.806Z,100849.51
2019-05-01T23:40:15.478Z,100847.59
2019-05-01T23:42:52.431Z,100846.88
2019-05-01T23:45:16.453Z,100847.24
2019-05-01T23:47:46.352Z,100840.53
2019-05-01T23:50:17.127Z,100838.96
2019-05-01T23:52:47.057Z,100835.61
2019-05-01T23:55:17.701Z,100836.42
2019-05-01T23:57:47.489Z,100836.72
